Time;durP1;ratioP1;P1;durP2;ratioP2;P2;SDS_P1;SDS_P2;PMS_P1;PMS_P2;Temp;Humidity;BMP_temperature;BMP_pressure;BME280_temperature;BME280_humidity;BME280_pressure;Samples;Min_cycle;Max_cycle;Signal;HPM_P1;HPM_P2
2022/01/19 00:01:46;;;;;;;22.05;4.28;;;20.40;99.90;;;;;;5033188;28;20529;-82
2022/01/19 00:04:17;;;;;;;21.90;4.68;;;20.50;99.90;;;;;;5028836;28;20198;-82
2022/01/19 00:06:50;;;;;;;24.02;4.57;;;20.60;99.90;;;;;;5037271;28;20537;-81
2022/01/19 00:09:20;;;;;;;23.48;4.53;;;20.60;99.90;;;;;;5036581;28;20654;-82
2022/01/19 00:11:51;;;;;;;19.63;4.85;;;20.70;99.90;;;;;;5034936;28;20194;-83
2022/01/19 00:14:22;;;;;;;22.13;4.60;;;20.70;99.90;;;;;;5038013;28;20210;-83
2022/01/19 00:16:53;;;;;;;20.23;4.65;;;20.70;99.90;;;;;;5040364;28;20187;-83
2022/01/19 00:19:23;;;;;;;24.15;5.00;;;20.60;99.90;;;;;;5033466;28;20202;-83
2022/01/19 00:21:56;;;;;;;21.85;4.35;;;20.70;99.90;;;;;;5032875;28;20236;-82
2022/01/19 00:24:26;;;;;;;30.75;5.53;;;20.70;99.90;;;;;;5033324;28;20721;-82
2022/01/19 00:26:57;;;;;;;22.27;4.43;;;20.70;99.90;;;;;;5026065;28;20241;-82
2022/01/19 00:29:27;;;;;;;25.67;5.10;;;20.70;99.90;;;;;;5033900;28;20708;-82
2022/01/19 00:31:58;;;;;;;24.10;4.72;;;20.70;99.90;;;;;;5031539;28;20202;-82
2022/01/19 00:34:31;;;;;;;20.40;4.95;;;20.80;99.90;;;;;;5031611;28;20626;-82
2022/01/19 00:37:04;;;;;;;26.95;4.85;;;20.80;99.90;;;;;;5030630;28;20218;-82
2022/01/19 00:39:35;;;;;;;18.88;4.72;;;20.80;99.90;;;;;;5033261;28;20194;-83
2022/01/19 00:42:05;;;;;;;22.50;4.53;;;20.80;99.90;;;;;;5031526;28;20197;-81
2022/01/19 00:44:38;;;;;;;27.75;4.72;;;20.90;99.90;;;;;;5033047;28;20230;-82
2022/01/19 00:47:09;;;;;;;19.85;4.32;;;20.90;99.90;;;;;;5026027;28;20198;-82
2022/01/19 00:49:40;;;;;;;23.75;4.35;;;20.90;99.90;;;;;;5032294;28;20186;-81
2022/01/19 00:52:13;;;;;;;22.73;4.57;;;20.90;99.90;;;;;;5030565;28;20186;-81
2022/01/19 00:54:44;;;;;;;24.80;4.80;;;20.80;99.90;;;;;;5033402;28;20267;-81
2022/01/19 00:57:15;;;;;;;23.35;5.13;;;20.70;99.90;;;;;;5032374;28;20233;-82
2022/01/19 00:59:46;;;;;;;19.33;4.20;;;20.80;99.90;;;;;;5033297;28;20584;-82
2022/01/19 01:02:16;;;;;;;17.15;3.85;;;20.80;99.90;;;;;;5031572;28;20216;-82
2022/01/19 01:04:47;;;;;;;21.40;4.32;;;20.80;99.90;;;;;;5032830;28;20264;-82
2022/01/19 01:07:19;;;;;;;19.98;4.30;;;20.80;99.90;;;;;;5025747;28;20191;-82
2022/01/19 01:09:50;;;;;;;21.52;4.28;;;20.90;99.90;;;;;;5031706;28;20709;-82
2022/01/19 01:12:28;;;;;;;23.50;4.47;;;20.90;99.90;;;;;;5032894;28;20187;-82
2022/01/19 01:20:32;;;;;;;16.38;3.97;;;21.00;99.90;;;;;;5026459;28;20185;-82
2022/01/19 01:23:04;;;;;;;19.58;3.83;;;21.00;99.90;;;;;;5032306;28;20199;-82
2022/01/19 01:25:35;;;;;;;19.52;3.67;;;21.00;99.90;;;;;;5032947;28;20238;-82
2022/01/19 01:28:06;;;;;;;19.48;3.70;;;20.90;99.90;;;;;;5032594;28;20186;-82
2022/01/19 01:30:40;;;;;;;22.52;3.70;;;21.00;99.90;;;;;;5032736;28;20190;-82
2022/01/19 01:33:11;;;;;;;17.50;3.60;;;21.00;99.90;;;;;;5033425;28;20182;-83
2022/01/19 01:35:42;;;;;;;19.75;3.70;;;21.10;99.90;;;;;;5032728;28;20194;-83
2022/01/19 01:38:15;;;;;;;25.50;4.20;;;21.10;99.90;;;;;;5032777;28;20190;-82
2022/01/19 01:40:45;;;;;;;18.92;3.92;;;21.10;99.90;;;;;;5032246;28;20208;-82
2022/01/19 01:43:16;;;;;;;18.50;2.90;;;21.10;99.90;;;;;;5032708;28;20190;-82
2022/01/19 01:45:50;;;;;;;17.30;3.50;;;21.10;99.90;;;;;;5032286;28;20186;-83
2022/01/19 01:48:24;;;;;;;15.30;2.70;;;21.00;99.90;;;;;;5027331;28;20255;-84
2022/01/19 01:53:43;;;;;;;14.48;2.90;;;21.30;99.90;;;;;;5031616;28;20221;-83
2022/01/19 01:56:16;;;;;;;16.42;2.38;;;21.40;99.90;;;;;;5032189;28;20186;-83
2022/01/19 01:58:48;;;;;;;13.65;2.70;;;21.60;99.90;;;;;;5032363;28;20281;-82
2022/01/19 02:01:19;;;;;;;11.98;2.45;;;21.80;99.90;;;;;;5031588;28;20191;-84
2022/01/19 02:03:50;;;;;;;12.32;2.35;;;22.00;99.90;;;;;;5031736;28;20193;-82
2022/01/19 02:06:31;;;;;;;16.52;2.60;;;22.10;99.90;;;;;;5032254;28;20605;-82
2022/01/19 02:09:09;;;;;;;12.40;2.45;;;22.30;99.90;;;;;;5032120;28;20193;-79
2022/01/19 02:23:15;;;;;;;12.68;2.40;;;23.30;99.90;;;;;;5026762;28;20205;-84
2022/01/19 02:25:46;;;;;;;9.18;2.33;;;23.40;99.90;;;;;;5032055;28;20206;-82
2022/01/19 02:31:34;;;;;;;11.77;2.30;;;23.10;99.90;;;;;;5031018;28;20287;-83
2022/01/19 02:40:07;;;;;;;15.93;2.95;;;22.90;99.90;;;;;;5026622;28;20197;-83
2022/01/19 02:42:39;;;;;;;16.85;2.85;;;22.90;99.90;;;;;;5031651;28;20841;-79
2022/01/19 02:50:45;;;;;;;13.95;2.83;;;22.90;99.90;;;;;;5031310;28;20236;-82
2022/01/19 02:53:18;;;;;;;16.42;2.95;;;22.90;99.90;;;;;;5025047;28;20194;-82
2022/01/19 02:55:49;;;;;;;14.93;2.85;;;23.00;99.90;;;;;;5031134;28;20237;-85
2022/01/19 02:58:22;;;;;;;14.30;2.42;;;23.00;99.90;;;;;;5030997;28;20199;-86
2022/01/19 03:09:17;;;;;;;10.60;2.35;;;22.80;99.90;;;;;;5022126;28;20228;-83
2022/01/19 03:11:48;;;;;;;11.07;2.17;;;22.70;99.90;;;;;;5031074;28;20570;-82
2022/01/19 03:14:19;;;;;;;15.50;2.63;;;22.50;99.90;;;;;;5025289;28;20218;-83
2022/01/19 03:16:50;;;;;;;13.60;2.55;;;22.40;99.90;;;;;;5035691;28;20608;-84
2022/01/19 03:19:20;;;;;;;11.35;2.53;;;22.40;99.90;;;;;;5032766;28;20683;-85
2022/01/19 03:21:51;;;;;;;17.50;2.92;;;22.50;99.90;;;;;;5034742;28;20635;-84
2022/01/19 03:24:24;;;;;;;22.80;3.25;;;22.50;99.90;;;;;;5044072;28;20702;-85
2022/01/19 03:26:57;;;;;;;15.68;2.88;;;22.60;99.90;;;;;;5034768;28;20647;-83
2022/01/19 03:29:27;;;;;;;17.08;2.90;;;22.70;99.90;;;;;;5034878;28;20190;-85
2022/01/19 03:31:58;;;;;;;18.73;2.85;;;22.60;99.90;;;;;;5034104;28;20193;-85
2022/01/19 03:34:31;;;;;;;17.05;3.38;;;22.70;99.90;;;;;;5032836;28;20620;-85
2022/01/19 03:37:02;;;;;;;12.35;2.08;;;22.70;99.90;;;;;;5030144;28;20264;-85
2022/01/19 03:39:34;;;;;;;15.25;2.72;;;22.70;99.90;;;;;;5038624;28;20203;-83
2022/01/19 03:42:06;;;;;;;10.80;2.33;;;22.90;99.90;;;;;;5038221;28;20646;-85
2022/01/19 03:44:37;;;;;;;7.88;2.05;;;22.90;99.90;;;;;;5027475;28;20229;-82
2022/01/19 03:47:08;;;;;;;11.63;2.00;;;23.10;99.90;;;;;;5030130;28;20252;-85
2022/01/19 03:49:38;;;;;;;11.75;1.92;;;23.30;99.90;;;;;;5049248;28;20190;-82
2022/01/19 03:52:09;;;;;;;7.82;1.98;;;23.40;99.90;;;;;;5035651;28;20194;-82
2022/01/19 03:54:44;;;;;;;11.02;2.05;;;23.40;99.90;;;;;;5026300;28;20701;-83
2022/01/19 03:57:15;;;;;;;13.48;2.00;;;23.40;99.90;;;;;;5033256;28;20205;-79
2022/01/19 03:59:46;;;;;;;12.57;2.42;;;23.30;99.90;;;;;;5033750;28;20190;-80
2022/01/19 04:02:18;;;;;;;13.57;2.50;;;23.30;99.90;;;;;;5033853;28;20241;-81
2022/01/19 04:04:55;;;;;;;13.25;2.20;;;23.20;99.90;;;;;;5025612;28;20190;-80
2022/01/19 04:07:26;;;;;;;8.18;2.17;;;23.20;99.90;;;;;;5033500;28;20186;-80
2022/01/19 04:10:02;;;;;;;13.00;1.98;;;23.20;99.90;;;;;;5033983;28;20190;-84
2022/01/19 04:12:45;;;;;;;14.43;2.10;;;23.10;99.90;;;;;;5034288;28;20198;-83
2022/01/19 04:15:19;;;;;;;13.38;2.60;;;23.10;99.90;;;;;;5033488;28;20218;-81
2022/01/19 04:17:53;;;;;;;11.48;2.05;;;22.90;99.90;;;;;;5026789;28;20186;-80
2022/01/19 04:20:26;;;;;;;12.48;2.20;;;22.80;99.90;;;;;;5033980;28;20190;-81
2022/01/19 04:22:57;;;;;;;10.98;2.15;;;22.60;99.90;;;;;;5026638;28;20190;-81
2022/01/19 04:25:29;;;;;;;7.43;1.83;;;22.50;99.90;;;;;;5032115;28;20230;-81
2022/01/19 04:28:06;;;;;;;12.35;2.85;;;22.30;99.90;;;;;;5031298;28;20191;-80
2022/01/19 04:30:37;;;;;;;14.50;2.78;;;22.30;99.90;;;;;;5031663;28;20192;-82
2022/01/19 04:33:11;;;;;;;15.20;2.90;;;22.10;99.90;;;;;;5034117;28;20241;-78
2022/01/19 04:35:51;;;;;;;11.55;2.30;;;21.90;99.90;;;;;;5033572;28;20213;-83
2022/01/19 05:03:30;;;;;;;12.85;2.17;;;21.70;99.90;;;;;;5032591;28;20205;-81
2022/01/19 05:06:05;;;;;;;13.43;2.50;;;21.80;99.90;;;;;;5032651;28;20202;-84
2022/01/19 05:08:52;;;;;;;14.02;2.53;;;21.80;99.90;;;;;;5030939;28;20210;-80
2022/01/19 05:14:32;;;;;;;16.63;2.78;;;21.80;99.90;;;;;;5025221;28;20233;-82
2022/01/19 05:17:02;;;;;;;13.95;2.55;;;21.70;99.90;;;;;;5032829;28;20198;-83
2022/01/19 05:19:42;;;;;;;9.40;1.63;;;21.60;99.90;;;;;;5030704;28;20213;-83
2022/01/19 05:22:12;;;;;;;8.27;1.95;;;21.40;99.90;;;;;;5030201;28;20201;-84
2022/01/19 05:24:43;;;;;;;9.95;1.95;;;21.20;99.90;;;;;;5030667;28;20234;-84
2022/01/19 05:27:14;;;;;;;10.15;1.95;;;21.00;99.90;;;;;;5032436;28;20206;-83
2022/01/19 05:29:47;;;;;;;16.70;2.95;;;20.90;99.90;;;;;;5029087;28;20208;-81
2022/01/19 05:32:18;;;;;;;13.30;2.33;;;20.90;99.90;;;;;;5029099;28;20655;-83
2022/01/19 05:34:48;;;;;;;14.85;2.45;;;20.90;99.90;;;;;;5030319;28;20214;-80
2022/01/19 05:37:19;;;;;;;15.48;2.65;;;21.00;99.90;;;;;;5032452;28;20194;-85
2022/01/19 05:39:50;;;;;;;14.10;2.45;;;21.20;99.90;;;;;;5028914;28;20195;-86
2022/01/19 05:42:21;;;;;;;12.50;2.03;;;21.30;99.90;;;;;;5029916;28;20194;-84
2022/01/19 05:44:53;;;;;;;14.43;2.33;;;21.40;99.90;;;;;;5030551;28;20210;-85
2022/01/19 05:47:24;;;;;;;15.32;2.70;;;21.40;99.90;;;;;;5032073;28;20681;-83
2022/01/19 05:49:54;;;;;;;14.23;2.35;;;21.40;99.90;;;;;;5029129;28;20626;-80
2022/01/19 05:52:25;;;;;;;15.82;2.30;;;21.50;99.90;;;;;;5031529;28;20213;-81
2022/01/19 05:54:56;;;;;;;12.90;2.17;;;21.50;99.90;;;;;;5030001;28;20214;-84
2022/01/19 05:57:26;;;;;;;13.68;2.33;;;21.60;99.90;;;;;;5032620;28;20202;-83
2022/01/19 05:59:59;;;;;;;17.95;2.40;;;21.60;99.90;;;;;;5028781;28;20194;-84
2022/01/19 06:02:30;;;;;;;19.23;2.42;;;21.70;99.90;;;;;;5031702;28;20651;-80
2022/01/19 06:05:01;;;;;;;13.73;2.35;;;21.80;99.90;;;;;;5037666;28;20579;-80
2022/01/19 06:07:40;;;;;;;11.35;2.00;;;21.80;99.90;;;;;;5030509;28;20607;-81
2022/01/19 06:10:42;;;;;;;10.18;1.98;;;21.90;99.90;;;;;;5032410;28;20584;-82
2022/01/19 06:13:03;;;;;;;11.18;2.03;;;21.90;99.90;;;;;;5026486;28;20197;-82
2022/01/19 06:15:35;;;;;;;13.70;1.77;;;21.90;99.90;;;;;;5024116;28;20759;-80
2022/01/19 06:18:06;;;;;;;11.25;2.28;;;21.90;99.90;;;;;;5032126;28;20198;-82
2022/01/19 06:20:37;;;;;;;12.32;2.15;;;21.90;99.90;;;;;;5030297;28;20558;-83
2022/01/19 06:23:08;;;;;;;12.15;1.92;;;21.90;99.90;;;;;;5034162;28;20198;-84
2022/01/19 06:25:39;;;;;;;8.80;1.88;;;21.90;99.90;;;;;;5029909;28;20229;-85
2022/01/19 06:28:09;;;;;;;10.65;1.88;;;21.90;99.90;;;;;;5027030;28;20202;-80
2022/01/19 06:30:42;;;;;;;8.18;1.95;;;21.90;99.90;;;;;;5031522;28;20194;-80
2022/01/19 06:33:13;;;;;;;11.95;2.08;;;21.90;99.90;;;;;;5030949;28;20205;-81
2022/01/19 06:35:54;;;;;;;13.38;2.13;;;21.80;99.90;;;;;;5026513;28;20234;-81
2022/01/19 06:38:25;;;;;;;13.50;2.10;;;21.70;99.90;;;;;;5030867;28;20232;-80
2022/01/19 06:40:56;;;;;;;11.95;2.00;;;21.60;99.90;;;;;;5033183;28;20614;-79
2022/01/19 06:43:28;;;;;;;15.07;2.28;;;21.60;99.90;;;;;;5030167;28;20222;-80
2022/01/19 06:46:01;;;;;;;12.70;2.20;;;21.70;99.90;;;;;;5035169;28;20194;-82
2022/01/19 06:48:31;;;;;;;11.63;2.00;;;21.80;99.90;;;;;;5034199;28;20200;-80
2022/01/19 06:51:02;;;;;;;15.60;2.30;;;21.70;99.90;;;;;;5040232;28;20200;-79
2022/01/19 06:53:33;;;;;;;9.40;1.90;;;21.40;99.90;;;;;;5038240;28;20205;-80
2022/01/19 06:56:05;;;;;;;12.23;2.28;;;21.10;99.90;;;;;;5040800;28;20634;-80
2022/01/19 06:58:38;;;;;;;11.07;2.03;;;20.80;99.90;;;;;;5035179;28;20563;-79
2022/01/19 07:01:11;;;;;;;11.43;1.80;;;20.40;99.90;;;;;;5038189;28;20205;-82
2022/01/19 07:03:42;;;;;;;10.73;2.10;;;20.30;99.90;;;;;;5030260;28;20284;-81
2022/01/19 07:06:13;;;;;;;10.80;1.98;;;20.20;99.90;;;;;;5033000;28;20233;-80
2022/01/19 07:08:44;;;;;;;10.52;2.03;;;20.10;99.90;;;;;;5044273;28;20663;-81
2022/01/19 07:11:18;;;;;;;11.32;2.20;;;20.20;99.90;;;;;;5035018;28;20194;-81
2022/01/19 07:13:49;;;;;;;15.93;2.30;;;20.10;99.90;;;;;;5034699;28;20217;-81
2022/01/19 07:16:22;;;;;;;12.20;2.40;;;20.20;99.90;;;;;;5042978;28;20218;-85
2022/01/19 07:18:52;;;;;;;12.13;2.65;;;20.30;99.90;;;;;;5027548;28;20693;-83
2022/01/19 07:21:23;;;;;;;14.27;2.67;;;20.40;99.90;;;;;;5031447;28;20256;-82
2022/01/19 07:23:54;;;;;;;10.80;2.30;;;20.50;99.90;;;;;;5025867;28;20233;-84
2022/01/19 07:26:25;;;;;;;18.17;2.42;;;20.50;99.90;;;;;;5045739;28;20190;-83
2022/01/19 07:28:56;;;;;;;15.60;2.60;;;20.60;99.90;;;;;;5034416;28;20190;-85
2022/01/19 07:31:28;;;;;;;12.40;2.75;;;20.60;99.90;;;;;;5035064;28;20650;-84
2022/01/19 07:33:59;;;;;;;14.45;2.63;;;20.50;99.90;;;;;;5035032;28;20213;-85
2022/01/19 07:36:33;;;;;;;17.25;2.45;;;20.60;99.90;;;;;;5042244;28;20209;-80
2022/01/19 07:39:03;;;;;;;11.75;2.22;;;20.60;99.90;;;;;;5035761;28;20819;-81
2022/01/19 07:41:34;;;;;;;14.43;2.50;;;20.70;99.90;;;;;;5039599;28;20653;-80
2022/01/19 07:44:08;;;;;;;10.82;2.00;;;20.80;99.90;;;;;;5036374;28;20194;-79
2022/01/19 07:46:40;;;;;;;11.38;2.08;;;20.90;99.90;;;;;;5040583;28;20378;-81
2022/01/19 07:49:11;;;;;;;12.65;1.88;;;21.00;99.90;;;;;;5040285;28;20190;-80
2022/01/19 07:51:42;;;;;;;12.18;1.90;;;21.20;99.90;;;;;;5036711;28;20634;-78
2022/01/19 07:54:12;;;;;;;12.88;2.13;;;21.20;99.90;;;;;;5037582;28;20217;-79
2022/01/19 07:56:43;;;;;;;12.68;2.47;;;21.30;99.90;;;;;;5034582;28;20214;-80
2022/01/19 07:59:14;;;;;;;11.63;2.33;;;21.30;99.90;;;;;;5038043;28;20202;-81
2022/01/19 08:01:47;;;;;;;13.10;2.08;;;21.40;99.90;;;;;;5034122;28;20190;-80
2022/01/19 08:04:17;;;;;;;17.55;2.40;;;21.30;99.90;;;;;;5041773;28;20642;-80
2022/01/19 08:06:54;;;;;;;12.80;2.83;;;21.30;99.90;;;;;;5035786;28;20198;-79
2022/01/19 08:09:25;;;;;;;11.32;2.03;;;21.30;99.90;;;;;;5033045;28;20193;-81
2022/01/19 08:11:56;;;;;;;12.65;2.38;;;21.40;99.90;;;;;;5034934;28;20210;-80
2022/01/19 08:14:27;;;;;;;9.07;1.95;;;21.40;99.90;;;;;;5032519;28;20220;-79
2022/01/19 08:17:00;;;;;;;8.73;2.13;;;21.40;99.90;;;;;;5036781;28;20732;-79
2022/01/19 08:19:32;;;;;;;16.48;2.15;;;21.30;99.90;;;;;;5036770;28;20203;-80
2022/01/19 08:22:03;;;;;;;14.77;2.13;;;21.30;99.90;;;;;;5047285;28;20185;-79
2022/01/19 08:24:33;;;;;;;13.98;1.98;;;21.30;99.90;;;;;;5032395;28;20233;-79
2022/01/19 08:27:07;;;;;;;16.25;2.60;;;21.30;99.90;;;;;;5037305;28;20194;-81
2022/01/19 08:29:38;;;;;;;14.43;1.90;;;21.30;99.90;;;;;;5035082;28;20639;-79
2022/01/19 08:32:13;;;;;;;12.70;2.00;;;21.30;99.90;;;;;;5035911;28;20216;-80
2022/01/19 08:34:44;;;;;;;16.35;2.17;;;21.30;99.90;;;;;;5030677;28;20183;-79
2022/01/19 08:37:20;;;;;;;10.95;2.50;;;21.30;99.90;;;;;;5038012;28;20206;-80
2022/01/19 08:39:52;;;;;;;13.65;2.22;;;21.30;99.90;;;;;;5032141;28;20190;-80
2022/01/19 08:42:23;;;;;;;12.70;2.25;;;21.30;99.90;;;;;;5037405;28;20276;-79
2022/01/19 08:44:54;;;;;;;11.02;2.13;;;21.20;99.90;;;;;;5031090;28;20195;-79
2022/01/19 08:47:27;;;;;;;8.73;2.03;;;21.20;99.90;;;;;;5034815;28;20267;-84
2022/01/19 08:49:57;;;;;;;15.10;2.20;;;21.20;99.90;;;;;;5034086;28;20197;-80
2022/01/19 08:52:28;;;;;;;14.45;2.42;;;21.10;99.90;;;;;;5026965;28;20194;-81
2022/01/19 08:54:59;;;;;;;14.90;1.95;;;21.20;99.90;;;;;;5031327;28;20194;-80
2022/01/19 08:57:29;;;;;;;11.45;2.00;;;21.20;99.90;;;;;;5036457;28;20195;-82
2022/01/19 09:00:00;;;;;;;10.38;1.83;;;21.20;99.90;;;;;;5032978;28;20186;-82
2022/01/19 09:02:32;;;;;;;13.75;1.90;;;21.20;99.90;;;;;;5030210;28;20198;-81
2022/01/19 09:05:04;;;;;;;13.35;2.25;;;21.20;99.90;;;;;;5034557;28;20197;-81
2022/01/19 09:07:35;;;;;;;13.18;1.98;;;21.20;99.90;;;;;;5032716;28;20687;-82
2022/01/19 09:10:08;;;;;;;10.35;1.98;;;21.20;99.90;;;;;;5030739;28;20604;-80
2022/01/19 09:12:44;;;;;;;11.82;2.30;;;21.10;99.90;;;;;;5033532;28;20182;-81
2022/01/19 09:15:17;;;;;;;18.30;2.08;;;21.10;99.90;;;;;;5028655;28;20225;-80
2022/01/19 09:17:50;;;;;;;11.23;2.33;;;21.00;99.90;;;;;;5032924;28;20190;-80
2022/01/19 09:20:21;;;;;;;16.90;2.35;;;21.10;99.90;;;;;;5034024;28;20253;-81
2022/01/19 09:22:51;;;;;;;9.80;2.00;;;21.10;99.90;;;;;;5032198;28;20256;-81
2022/01/19 09:25:22;;;;;;;8.93;2.03;;;21.10;99.90;;;;;;5035586;28;20233;-85
2022/01/19 09:27:53;;;;;;;13.30;2.47;;;21.10;99.90;;;;;;5033197;28;20560;-81
2022/01/19 09:30:24;;;;;;;12.63;2.08;;;21.10;99.90;;;;;;5032094;28;20182;-83
2022/01/19 09:33:06;;;;;;;11.77;1.85;;;21.10;99.90;;;;;;5028597;28;20240;-80
2022/01/19 09:35:52;;;;;;;14.70;2.03;;;21.10;99.90;;;;;;5032392;28;20218;-81
2022/01/19 09:38:24;;;;;;;15.20;2.00;;;21.20;99.90;;;;;;5031860;28;20313;-80
2022/01/19 09:40:55;;;;;;;14.70;2.13;;;21.20;99.90;;;;;;5032251;28;20201;-80
2022/01/19 09:43:27;;;;;;;19.08;2.53;;;21.10;99.90;;;;;;5031860;28;20300;-80
2022/01/19 09:46:26;;;;;;;12.82;1.98;;;21.10;99.90;;;;;;5032945;28;20227;-80
2022/01/19 09:48:59;;;;;;;13.43;2.15;;;21.10;99.90;;;;;;5028352;28;20189;-81
2022/01/19 09:51:30;;;;;;;16.73;2.45;;;21.10;99.90;;;;;;5032178;28;20186;-81
2022/01/19 09:54:01;;;;;;;15.70;2.10;;;21.10;99.90;;;;;;5035564;28;20191;-84
2022/01/19 09:56:32;;;;;;;11.68;2.00;;;21.10;99.90;;;;;;5031854;28;20210;-83
2022/01/19 09:59:03;;;;;;;21.48;2.45;;;21.10;99.90;;;;;;5031530;28;20202;-82
2022/01/19 10:01:33;;;;;;;13.43;1.90;;;21.10;99.90;;;;;;5032658;28;20183;-83
2022/01/19 10:04:19;;;;;;;11.05;2.05;;;21.20;99.90;;;;;;5028107;28;20187;-83
2022/01/19 10:06:50;;;;;;;10.02;1.75;;;21.20;99.90;;;;;;5032326;28;20192;-83
2022/01/19 10:09:29;;;;;;;13.52;2.10;;;21.20;99.90;;;;;;5032234;28;20190;-82
2022/01/19 10:17:46;;;;;;;12.52;2.20;;;21.20;99.90;;;;;;5031869;28;20218;-82
2022/01/19 10:20:26;;;;;;;12.43;1.90;;;21.10;99.90;;;;;;5032013;28;20256;-83
2022/01/19 10:22:57;;;;;;;13.40;1.88;;;21.20;99.90;;;;;;5033824;28;20182;-84
2022/01/19 10:25:48;;;;;;;14.35;2.10;;;21.20;99.90;;;;;;5037197;28;20225;-85
2022/01/19 10:28:18;;;;;;;15.18;1.98;;;21.20;99.90;;;;;;5037095;28;20194;-81
2022/01/19 10:30:49;;;;;;;10.60;1.60;;;21.20;99.90;;;;;;5036439;28;20638;-83
2022/01/19 10:33:20;;;;;;;11.02;1.52;;;21.20;99.90;;;;;;5036710;28;20268;-84
2022/01/19 10:35:53;;;;;;;7.28;1.35;;;21.20;99.90;;;;;;5036095;28;20194;-82
2022/01/19 10:38:27;;;;;;;12.55;1.67;;;21.10;99.90;;;;;;5037968;28;20191;-83
2022/01/19 10:41:13;;;;;;;7.40;1.45;;;21.10;99.90;;;;;;5035535;28;20268;-83
2022/01/19 10:43:46;;;;;;;8.38;1.38;;;21.10;99.90;;;;;;5035587;28;20198;-84
2022/01/19 10:46:34;;;;;;;13.05;1.83;;;21.10;99.90;;;;;;5035623;28;20190;-82
2022/01/19 10:49:07;;;;;;;9.52;1.60;;;21.00;99.90;;;;;;5033323;28;20197;-83
2022/01/19 10:51:45;;;;;;;9.13;1.50;;;21.10;99.90;;;;;;5032854;28;20193;-83
2022/01/19 10:54:19;;;;;;;12.80;1.98;;;21.10;99.90;;;;;;5035393;28;20198;-83
2022/01/19 10:56:54;;;;;;;8.45;1.40;;;21.10;99.90;;;;;;5034193;28;20682;-82
2022/01/19 10:59:30;;;;;;;10.05;1.75;;;21.00;99.90;;;;;;5033435;28;20201;-84
2022/01/19 11:02:03;;;;;;;9.50;1.65;;;21.10;99.90;;;;;;5034833;28;20678;-82
2022/01/19 11:04:35;;;;;;;8.10;1.50;;;21.10;99.90;;;;;;5035438;28;20205;-82
2022/01/19 11:07:11;;;;;;;9.90;1.95;;;21.20;99.90;;;;;;5035223;28;20194;-83
2022/01/19 11:09:46;;;;;;;9.93;1.88;;;21.20;99.90;;;;;;5034589;28;20282;-84
2022/01/19 11:12:19;;;;;;;13.27;1.90;;;21.20;99.90;;;;;;5033735;28;20272;-83
2022/01/19 11:14:50;;;;;;;8.90;1.75;;;21.30;99.90;;;;;;5038140;28;20187;-83
2022/01/19 11:17:21;;;;;;;11.10;1.88;;;21.30;99.90;;;;;;5035501;28;20210;-81
2022/01/19 11:19:53;;;;;;;12.40;1.98;;;21.30;99.90;;;;;;5035174;28;20302;-80
2022/01/19 11:22:38;;;;;;;11.57;1.90;;;21.30;99.90;;;;;;5030528;28;20233;-83
2022/01/19 11:25:19;;;;;;;13.30;2.03;;;21.30;99.90;;;;;;5035046;28;20240;-86
2022/01/19 11:27:51;;;;;;;14.25;2.67;;;21.30;99.90;;;;;;5032636;28;20214;-84
2022/01/19 11:30:24;;;;;;;15.68;2.20;;;21.30;99.90;;;;;;5029558;28;20209;-80
2022/01/19 11:33:26;;;;;;;15.68;2.00;;;21.40;99.90;;;;;;5034636;28;20203;-82
2022/01/19 11:36:25;;;;;;;16.38;2.22;;;21.30;99.90;;;;;;4998668;28;20623;-82
2022/01/19 11:39:08;;;;;;;12.10;2.30;;;21.30;99.90;;;;;;5035292;28;20225;-82
2022/01/19 11:41:45;;;;;;;16.15;1.90;;;21.30;99.90;;;;;;5032977;28;20226;-80
2022/01/19 11:44:19;;;;;;;10.30;1.90;;;21.20;99.90;;;;;;5031112;28;20230;-81
2022/01/19 11:46:53;;;;;;;14.40;1.92;;;21.20;99.90;;;;;;5040809;28;20300;-83
2022/01/19 11:49:47;;;;;;;9.80;1.70;;;21.20;99.90;;;;;;5040422;28;20191;-83
2022/01/19 11:52:19;;;;;;;9.57;1.60;;;21.10;99.90;;;;;;5028069;28;20264;-82
2022/01/19 11:54:53;;;;;;;18.65;2.03;;;21.10;99.90;;;;;;5034185;28;20192;-80
2022/01/19 11:57:28;;;;;;;12.70;1.90;;;21.20;99.90;;;;;;5034109;28;20259;-82
2022/01/19 12:00:23;;;;;;;17.30;2.28;;;21.20;99.90;;;;;;5033292;28;20198;-82
2022/01/19 12:02:56;;;;;;;9.30;1.50;;;21.20;99.90;;;;;;5042654;28;20241;-82
2022/01/19 12:05:32;;;;;;;12.70;2.05;;;21.10;99.90;;;;;;5034847;28;20268;-82
2022/01/19 12:08:05;;;;;;;13.70;1.70;;;21.10;99.90;;;;;;5039346;28;20193;-84
2022/01/19 12:10:49;;;;;;;10.07;2.10;;;21.10;99.90;;;;;;5034543;28;20195;-82
2022/01/19 12:13:33;;;;;;;12.30;2.00;;;21.10;99.90;;;;;;5033658;28;20589;-82
2022/01/19 12:16:09;;;;;;;10.90;1.70;;;21.10;99.90;;;;;;5035745;28;20712;-84
2022/01/19 12:18:49;;;;;;;12.20;1.83;;;21.20;99.90;;;;;;5033915;28;20556;-82
2022/01/19 12:21:40;;;;;;;12.20;1.75;;;21.20;99.90;;;;;;5029116;28;20588;-84
2022/01/19 12:24:21;;;;;;;12.98;1.90;;;21.30;99.90;;;;;;5033861;28;20234;-82
2022/01/19 12:27:00;;;;;;;9.57;1.65;;;21.30;99.90;;;;;;5035155;28;20240;-82
2022/01/19 12:29:51;;;;;;;10.13;2.13;;;21.30;99.90;;;;;;5030592;28;20186;-83
2022/01/19 12:32:44;;;;;;;12.85;1.88;;;21.40;99.90;;;;;;5033498;28;20594;-82
2022/01/19 12:35:24;;;;;;;9.20;1.50;;;21.40;99.90;;;;;;5033219;28;20252;-82
2022/01/19 12:37:56;;;;;;;12.32;1.70;;;21.40;99.90;;;;;;5033918;28;20218;-82
2022/01/19 12:40:44;;;;;;;10.15;1.60;;;21.40;99.90;;;;;;5032826;28;20183;-83
2022/01/19 12:43:33;;;;;;;10.45;1.50;;;21.40;99.90;;;;;;5032259;28;20193;-83
2022/01/19 12:46:06;;;;;;;12.68;2.20;;;21.40;99.90;;;;;;5031858;28;20214;-81
2022/01/19 12:48:47;;;;;;;12.55;1.85;;;21.40;99.90;;;;;;5031364;28;20190;-83
2022/01/19 12:51:38;;;;;;;13.98;1.88;;;21.40;99.90;;;;;;5033096;28;20190;-83
2022/01/19 12:54:12;;;;;;;18.17;1.92;;;21.40;99.90;;;;;;5032150;28;20194;-81
2022/01/19 12:56:56;;;;;;;10.95;1.88;;;21.40;99.90;;;;;;5032806;28;20267;-85
2022/01/19 12:59:29;;;;;;;13.55;1.92;;;21.40;99.90;;;;;;5034224;28;20317;-82
2022/01/19 13:02:00;;;;;;;10.88;1.80;;;21.40;99.90;;;;;;5034374;28;20190;-86
2022/01/19 13:04:33;;;;;;;11.48;1.85;;;21.40;99.90;;;;;;5031257;28;20232;-83
2022/01/19 13:07:20;;;;;;;10.98;1.95;;;21.40;99.90;;;;;;5032904;28;20589;-83
2022/01/19 13:10:09;;;;;;;10.13;1.75;;;21.30;99.90;;;;;;5030888;28;20225;-82
2022/01/19 13:12:49;;;;;;;13.88;1.90;;;21.30;99.90;;;;;;5032551;28;20194;-87
2022/01/19 13:15:21;;;;;;;11.75;2.08;;;21.20;99.90;;;;;;5033216;28;20186;-83
2022/01/19 13:17:55;;;;;;;13.45;2.05;;;21.20;99.90;;;;;;5032973;28;20580;-83
2022/01/19 13:20:28;;;;;;;12.00;1.95;;;21.20;99.90;;;;;;5036006;28;20582;-84
2022/01/19 13:22:59;;;;;;;9.52;1.70;;;21.20;99.90;;;;;;5037475;28;20583;-84
2022/01/19 13:25:32;;;;;;;8.27;1.77;;;21.30;99.90;;;;;;5033844;28;20249;-83
2022/01/19 13:28:04;;;;;;;9.90;1.30;;;21.30;99.90;;;;;;5032549;28;20647;-82
2022/01/19 13:30:39;;;;;;;9.02;1.60;;;21.30;99.90;;;;;;5032176;28;20264;-82
2022/01/19 13:33:14;;;;;;;15.40;1.90;;;21.30;99.90;;;;;;5039599;28;20189;-82
2022/01/19 13:35:45;;;;;;;11.27;1.63;;;21.30;99.90;;;;;;5026351;28;20283;-84
2022/01/19 13:38:16;;;;;;;10.27;2.17;;;21.30;99.90;;;;;;5038262;28;20221;-84
2022/01/19 13:40:47;;;;;;;11.98;1.88;;;21.30;99.90;;;;;;5026740;28;20179;-82
2022/01/19 13:43:20;;;;;;;14.80;2.10;;;21.30;99.90;;;;;;5032226;28;20194;-82
2022/01/19 13:46:01;;;;;;;11.43;2.00;;;21.20;99.90;;;;;;5035149;28;20241;-81
2022/01/19 13:48:32;;;;;;;8.75;1.92;;;21.10;99.90;;;;;;5032412;28;20729;-84
2022/01/19 13:51:06;;;;;;;10.10;1.48;;;21.10;99.90;;;;;;5032695;28;20623;-81
2022/01/19 13:53:41;;;;;;;9.20;1.65;;;21.00;99.90;;;;;;5033622;28;20202;-82
2022/01/19 13:56:14;;;;;;;11.93;1.70;;;21.00;99.90;;;;;;5035596;28;20203;-81
2022/01/19 13:58:48;;;;;;;10.88;2.08;;;21.00;99.90;;;;;;5026141;28;20297;-82
2022/01/19 14:01:23;;;;;;;11.00;1.67;;;21.00;99.90;;;;;;5029812;28;20603;-81
2022/01/19 14:03:56;;;;;;;10.00;1.70;;;21.00;99.90;;;;;;5028363;28;20255;-81
2022/01/19 14:06:29;;;;;;;12.45;1.77;;;21.00;99.90;;;;;;5030103;28;20720;-81
2022/01/19 14:09:12;;;;;;;12.57;1.70;;;21.00;99.90;;;;;;5034267;28;20190;-80
2022/01/19 14:11:44;;;;;;;8.15;1.40;;;21.10;99.90;;;;;;5031872;28;20198;-83
2022/01/19 14:14:16;;;;;;;12.95;1.70;;;21.10;99.90;;;;;;5037079;28;20206;-82
2022/01/19 14:16:54;;;;;;;9.48;1.77;;;21.10;99.90;;;;;;5034622;28;20182;-81
2022/01/19 14:19:26;;;;;;;12.60;1.73;;;21.10;99.90;;;;;;5031831;28;20553;-85
2022/01/19 14:22:01;;;;;;;6.97;1.63;;;21.10;99.90;;;;;;5032185;28;20197;-83
2022/01/19 14:24:44;;;;;;;9.50;1.67;;;21.10;99.90;;;;;;5029646;28;20225;-85
2022/01/19 14:27:33;;;;;;;10.52;1.60;;;21.20;99.90;;;;;;5031072;28;20202;-82
2022/01/19 14:30:06;;;;;;;13.20;1.80;;;21.10;99.90;;;;;;5029875;28;20195;-84